Time;durP1;ratioP1;P1;durP2;ratioP2;P2;SDS_P1;SDS_P2;PMS_P1;PMS_P2;Temp;Humidity;BMP_temperature;BMP_pressure;BME280_temperature;BME280_humidity;BME280_pressure;Samples;Min_cycle;Max_cycle;Signal;HPM_P1;HPM_P2
2024/02/05 00:00:43;;;;;;;0.50;0.50;;;13.30;99.90;;;;;;5108182;28;20995;-82
2024/02/05 00:03:09;;;;;;;1.27;1.27;;;13.30;99.90;;;;;;5107296;28;20344;-81
2024/02/05 00:05:36;;;;;;;0.30;0.20;;;13.30;99.90;;;;;;5106795;28;20510;-83
2024/02/05 00:08:03;;;;;;;0.30;0.20;;;13.40;99.90;;;;;;5106751;28;20805;-81
2024/02/05 00:10:29;;;;;;;0.30;0.20;;;13.40;99.90;;;;;;5107593;28;20479;-83
2024/02/05 00:12:55;;;;;;;1.43;1.43;;;13.40;99.90;;;;;;5107125;28;21025;-81
2024/02/05 00:15:20;;;;;;;0.30;0.20;;;13.40;99.90;;;;;;5105779;28;20404;-83
2024/02/05 00:17:46;;;;;;;0.30;0.20;;;13.40;99.90;;;;;;5108525;28;20199;-81
2024/02/05 00:20:12;;;;;;;0.30;0.20;;;13.40;99.90;;;;;;5108155;28;20168;-83
2024/02/05 00:22:38;;;;;;;0.30;0.20;;;13.40;99.90;;;;;;5107186;28;20203;-82
2024/02/05 00:25:05;;;;;;;0.30;0.20;;;13.40;99.90;;;;;;5106410;28;20876;-82
2024/02/05 00:27:32;;;;;;;0.30;0.20;;;13.40;99.90;;;;;;5107875;28;20500;-83
2024/02/05 00:29:57;;;;;;;0.97;0.97;;;13.40;99.90;;;;;;5107844;28;20404;-81
2024/02/05 00:32:23;;;;;;;0.30;0.20;;;13.40;99.90;;;;;;5107928;28;20493;-81
2024/02/05 00:34:50;;;;;;;0.30;0.20;;;13.30;99.90;;;;;;5108177;28;20164;-83
2024/02/05 00:37:17;;;;;;;0.30;0.20;;;13.30;99.90;;;;;;5107021;28;21055;-82
2024/02/05 00:39:42;;;;;;;0.30;0.20;;;13.30;99.90;;;;;;5107838;28;20910;-81
2024/02/05 00:42:08;;;;;;;0.30;0.20;;;13.40;99.90;;;;;;5105647;28;20424;-83
2024/02/05 00:44:34;;;;;;;0.63;0.63;;;13.30;99.90;;;;;;5106388;28;20344;-84
2024/02/05 00:47:00;;;;;;;0.30;0.20;;;13.30;99.90;;;;;;5106143;28;20506;-81
2024/02/05 00:49:26;;;;;;;0.30;0.20;;;13.20;99.90;;;;;;5106127;27;20686;-83
2024/02/05 00:51:52;;;;;;;0.30;0.20;;;13.20;99.90;;;;;;5106526;28;20444;-83
2024/02/05 00:54:18;;;;;;;0.30;0.20;;;13.10;99.90;;;;;;5107584;28;20416;-83
2024/02/05 00:56:43;;;;;;;0.30;0.20;;;13.00;99.90;;;;;;5107555;28;20230;-81
2024/02/05 00:59:09;;;;;;;0.30;0.20;;;13.00;99.90;;;;;;5106204;28;20244;-81
2024/02/05 01:01:34;;;;;;;0.30;0.20;;;13.00;99.90;;;;;;5105755;28;20639;-82
2024/02/05 01:04:00;;;;;;;0.30;0.20;;;13.00;99.90;;;;;;5107233;28;20226;-82
2024/02/05 01:06:26;;;;;;;0.30;0.20;;;13.00;99.90;;;;;;5107287;28;20194;-82
2024/02/05 01:08:52;;;;;;;0.30;0.20;;;13.00;99.90;;;;;;5105742;28;20202;-82
2024/02/05 01:11:17;;;;;;;0.30;0.20;;;13.10;99.90;;;;;;5106872;28;20460;-81
2024/02/05 01:13:43;;;;;;;0.30;0.20;;;13.10;99.90;;;;;;5106437;28;20204;-80
2024/02/05 01:16:09;;;;;;;0.30;0.20;;;13.10;99.90;;;;;;5104799;28;20180;-83
2024/02/05 01:18:36;;;;;;;0.30;0.20;;;13.10;99.90;;;;;;5107234;28;20192;-83
2024/02/05 01:21:03;;;;;;;0.30;0.20;;;13.10;99.90;;;;;;5105220;28;20480;-83
2024/02/05 01:23:29;;;;;;;0.30;0.20;;;13.10;99.90;;;;;;5107338;28;20831;-81
2024/02/05 01:25:55;;;;;;;0.30;0.20;;;13.10;99.90;;;;;;5106817;28;20562;-83
2024/02/05 01:28:21;;;;;;;0.30;0.30;;;13.10;99.90;;;;;;5105546;28;20191;-81
2024/02/05 01:30:46;;;;;;;0.30;0.20;;;13.10;99.90;;;;;;5105135;28;20428;-83
2024/02/05 01:33:12;;;;;;;0.30;0.20;;;13.10;99.90;;;;;;5107115;28;20799;-81
2024/02/05 01:35:38;;;;;;;0.30;0.20;;;13.10;99.90;;;;;;5106610;28;20237;-83
2024/02/05 01:38:04;;;;;;;0.30;0.20;;;13.10;99.90;;;;;;5106716;28;20446;-83
2024/02/05 01:40:30;;;;;;;0.30;0.20;;;13.10;99.90;;;;;;5106604;28;20388;-83
2024/02/05 01:42:56;;;;;;;0.30;0.20;;;13.00;99.90;;;;;;5105889;28;20428;-83
2024/02/05 01:45:21;;;;;;;0.30;0.30;;;13.00;99.90;;;;;;5106107;28;20785;-83
2024/02/05 01:47:47;;;;;;;0.30;0.20;;;13.00;99.90;;;;;;5106750;27;20221;-81
2024/02/05 01:50:15;;;;;;;0.30;0.20;;;13.00;99.90;;;;;;5106449;28;20734;-81
2024/02/05 01:52:48;;;;;;;0.30;0.20;;;12.90;99.90;;;;;;5106576;28;20672;-83
2024/02/05 01:55:16;;;;;;;0.30;0.20;;;12.90;99.90;;;;;;5104973;28;20400;-82
2024/02/05 01:57:43;;;;;;;0.30;0.20;;;12.90;99.90;;;;;;5105113;28;20536;-82
2024/02/05 02:00:14;;;;;;;3.17;3.07;;;12.90;99.90;;;;;;5106299;28;20919;-82
2024/02/05 02:02:41;;;;;;;0.30;0.20;;;12.90;99.90;;;;;;5104909;28;20818;-82
2024/02/05 02:05:07;;;;;;;0.50;0.30;;;12.80;99.90;;;;;;5106425;28;20478;-83
2024/02/05 02:07:33;;;;;;;0.30;0.20;;;12.70;99.90;;;;;;5106409;28;20427;-81
2024/02/05 02:10:00;;;;;;;0.30;0.20;;;12.70;99.90;;;;;;5105487;28;20600;-83
2024/02/05 02:12:26;;;;;;;0.30;0.20;;;12.70;99.90;;;;;;5106041;28;20454;-83
2024/02/05 02:14:52;;;;;;;0.30;0.20;;;12.60;99.90;;;;;;5105902;28;20404;-81
2024/02/05 02:17:20;;;;;;;0.67;0.67;;;12.60;99.90;;;;;;5105566;28;20826;-81
2024/02/05 02:19:48;;;;;;;0.30;0.20;;;12.50;99.90;;;;;;5104407;28;20172;-83
2024/02/05 02:22:23;;;;;;;0.30;0.20;;;12.40;99.90;;;;;;5105057;28;20439;-81
2024/02/05 02:24:49;;;;;;;1.43;1.33;;;12.40;99.90;;;;;;5104472;28;20452;-80
2024/02/05 02:27:15;;;;;;;0.30;0.20;;;12.40;99.90;;;;;;5104754;28;20431;-81
2024/02/05 02:29:42;;;;;;;0.30;0.20;;;12.40;99.90;;;;;;5105782;28;20428;-82
2024/02/05 02:32:41;;;;;;;0.30;0.20;;;12.30;99.90;;;;;;5104392;28;20203;-80
2024/02/05 02:35:27;;;;;;;2.20;2.10;;;12.30;99.90;;;;;;5104640;28;20404;-83
2024/02/05 02:38:01;;;;;;;0.30;0.20;;;12.30;99.90;;;;;;5104794;28;21028;-81
2024/02/05 02:40:29;;;;;;;0.30;0.20;;;12.30;99.90;;;;;;5104192;28;20933;-81
2024/02/05 02:42:58;;;;;;;0.30;0.30;;;12.30;99.90;;;;;;5104806;28;20991;-83
2024/02/05 02:45:25;;;;;;;0.30;0.20;;;12.20;99.90;;;;;;5105504;28;20749;-83
2024/02/05 02:47:51;;;;;;;0.30;0.20;;;12.10;99.90;;;;;;5104442;28;20428;-81
2024/02/05 02:50:17;;;;;;;0.60;0.60;;;12.10;99.90;;;;;;5103966;28;20489;-83
2024/02/05 02:52:42;;;;;;;0.30;0.20;;;12.10;99.90;;;;;;5104602;28;20227;-80
2024/02/05 02:55:08;;;;;;;0.30;0.20;;;12.10;99.90;;;;;;5105444;28;20629;-83
2024/02/05 02:57:34;;;;;;;0.30;0.20;;;12.10;99.90;;;;;;5105647;28;20668;-83
2024/02/05 02:59:59;;;;;;;0.30;0.20;;;12.10;99.90;;;;;;5105467;28;20397;-82
2024/02/05 03:02:25;;;;;;;0.30;0.20;;;12.10;99.90;;;;;;5105835;28;20179;-83
2024/02/05 03:04:54;;;;;;;0.30;0.20;;;12.10;99.90;;;;;;5105296;28;20210;-80
2024/02/05 03:07:20;;;;;;;0.30;0.20;;;12.10;99.90;;;;;;5108421;28;20428;-80
2024/02/05 03:09:46;;;;;;;0.30;0.20;;;12.10;99.90;;;;;;5107402;28;20716;-81
2024/02/05 03:12:11;;;;;;;0.30;0.20;;;12.10;99.90;;;;;;5107756;28;20791;-81
2024/02/05 03:14:37;;;;;;;0.30;0.20;;;12.20;99.90;;;;;;5108174;28;20195;-81
2024/02/05 03:17:03;;;;;;;0.30;0.20;;;12.20;99.90;;;;;;5109736;28;20180;-81
2024/02/05 03:19:29;;;;;;;0.30;0.20;;;12.20;99.90;;;;;;5108905;28;20187;-83
2024/02/05 03:21:56;;;;;;;0.30;0.20;;;12.10;99.90;;;;;;5108014;28;20422;-81
2024/02/05 03:24:21;;;;;;;0.40;0.40;;;11.90;99.90;;;;;;5107885;28;20472;-81
2024/02/05 03:26:47;;;;;;;0.30;0.20;;;11.90;99.90;;;;;;5107795;28;20431;-80
2024/02/05 03:29:13;;;;;;;0.30;0.20;;;11.90;99.90;;;;;;5108920;28;20270;-83
2024/02/05 03:31:42;;;;;;;0.30;0.20;;;12.00;99.90;;;;;;5107673;28;20240;-83
2024/02/05 03:34:09;;;;;;;0.50;0.47;;;12.00;99.90;;;;;;5109334;28;20415;-81
2024/02/05 03:36:34;;;;;;;0.30;0.20;;;12.00;99.90;;;;;;5107477;28;20231;-80
2024/02/05 03:39:00;;;;;;;0.30;0.30;;;12.00;99.90;;;;;;5108165;28;20439;-83
2024/02/05 03:41:26;;;;;;;0.50;0.50;;;12.00;99.90;;;;;;5108857;28;20180;-81
2024/02/05 03:43:51;;;;;;;0.30;0.20;;;12.00;99.90;;;;;;5107658;28;20664;-83
2024/02/05 03:46:17;;;;;;;0.30;0.20;;;11.90;99.90;;;;;;5107262;28;20191;-82
2024/02/05 03:48:53;;;;;;;0.30;0.20;;;11.90;99.90;;;;;;5107510;28;20207;-82
2024/02/05 03:51:19;;;;;;;0.77;0.77;;;11.80;99.90;;;;;;5107274;28;20270;-84
2024/02/05 03:53:45;;;;;;;0.30;0.20;;;11.80;99.90;;;;;;5108984;28;20196;-84
2024/02/05 03:56:12;;;;;;;0.30;0.20;;;11.70;99.90;;;;;;5108585;28;20259;-81
2024/02/05 03:58:38;;;;;;;0.30;0.20;;;11.70;99.90;;;;;;5107478;28;20435;-81
2024/02/05 04:01:05;;;;;;;0.30;0.20;;;11.60;99.90;;;;;;5106822;28;20312;-82
2024/02/05 04:03:31;;;;;;;0.30;0.20;;;11.60;99.90;;;;;;5107242;28;20272;-81
2024/02/05 04:05:57;;;;;;;0.30;0.30;;;11.60;99.90;;;;;;5108469;28;20207;-80
2024/02/05 04:08:24;;;;;;;0.30;0.20;;;11.70;99.90;;;;;;5107057;28;20195;-80
2024/02/05 04:10:51;;;;;;;0.30;0.20;;;11.60;99.90;;;;;;5106154;28;20562;-82
2024/02/05 04:13:17;;;;;;;0.30;0.20;;;11.50;99.90;;;;;;5106972;28;20895;-80
2024/02/05 04:15:43;;;;;;;0.30;0.20;;;11.40;99.90;;;;;;5106345;28;20244;-80
2024/02/05 04:18:09;;;;;;;0.30;0.20;;;11.20;99.90;;;;;;5106420;28;20439;-80
2024/02/05 04:20:35;;;;;;;0.45;0.45;;;11.20;99.90;;;;;;5106415;28;20207;-82
2024/02/05 04:23:01;;;;;;;0.30;0.20;;;11.10;99.90;;;;;;5107911;28;20188;-82
2024/02/05 04:25:28;;;;;;;0.30;0.20;;;11.00;99.90;;;;;;5106478;28;20463;-80
2024/02/05 04:27:53;;;;;;;2.55;2.45;;;10.90;99.90;;;;;;5106914;28;20278;-82
2024/02/05 04:30:28;;;;;;;0.30;0.20;;;11.00;99.90;;;;;;5106446;28;20270;-80
2024/02/05 04:32:55;;;;;;;0.30;0.30;;;11.10;99.90;;;;;;5107487;28;20702;-80
2024/02/05 04:35:21;;;;;;;0.85;0.85;;;11.00;99.90;;;;;;5106554;28;20578;-82
2024/02/05 04:37:47;;;;;;;0.30;0.20;;;11.00;99.90;;;;;;5108031;28;20478;-82
2024/02/05 04:40:13;;;;;;;1.17;1.07;;;10.90;99.90;;;;;;5106341;28;20378;-81
2024/02/05 04:42:39;;;;;;;0.30;0.30;;;10.90;99.90;;;;;;5106352;28;20247;-82
2024/02/05 04:45:05;;;;;;;0.30;0.20;;;10.80;99.90;;;;;;5107625;28;20740;-81
2024/02/05 04:47:31;;;;;;;0.30;0.20;;;10.90;99.90;;;;;;5107083;28;20645;-82
2024/02/05 04:49:57;;;;;;;0.40;0.40;;;10.90;99.90;;;;;;5106331;28;20225;-81
2024/02/05 04:52:22;;;;;;;2.97;2.40;;;10.90;99.90;;;;;;5106536;28;20184;-82
2024/02/05 04:54:48;;;;;;;0.50;0.50;;;11.00;99.90;;;;;;5105963;28;20178;-82
2024/02/05 04:57:14;;;;;;;0.30;0.20;;;11.10;99.90;;;;;;5108112;28;20184;-82
2024/02/05 04:59:39;;;;;;;0.30;0.30;;;11.10;99.90;;;;;;5105207;28;20188;-84
2024/02/05 05:02:06;;;;;;;0.30;0.20;;;11.20;99.90;;;;;;5107395;28;20555;-82
2024/02/05 05:04:31;;;;;;;1.15;1.15;;;11.20;99.90;;;;;;5106159;28;20550;-82
2024/02/05 05:06:59;;;;;;;2.97;2.77;;;11.20;99.90;;;;;;5106917;28;20742;-82
2024/02/05 05:09:25;;;;;;;0.30;0.20;;;11.10;99.90;;;;;;5104710;28;20297;-80
2024/02/05 05:11:51;;;;;;;1.07;1.07;;;11.00;99.90;;;;;;5105094;28;20206;-80
2024/02/05 05:14:16;;;;;;;0.30;0.20;;;10.90;99.90;;;;;;5107390;28;20188;-80
2024/02/05 05:16:42;;;;;;;4.00;3.80;;;10.90;99.90;;;;;;5105236;28;20435;-83
2024/02/05 05:19:08;;;;;;;0.30;0.20;;;10.80;99.90;;;;;;5099435;28;20287;-84
2024/02/05 05:21:34;;;;;;;1.97;1.90;;;10.80;99.90;;;;;;5099687;28;20625;-82
2024/02/05 05:23:59;;;;;;;0.60;0.60;;;10.90;99.90;;;;;;5101649;28;20366;-82
2024/02/05 05:26:25;;;;;;;3.70;3.60;;;11.00;99.90;;;;;;5105193;28;20314;-83
2024/02/05 05:28:51;;;;;;;0.30;0.20;;;11.00;99.90;;;;;;5105327;28;20647;-81
2024/02/05 05:31:17;;;;;;;0.40;0.30;;;11.10;99.90;;;;;;5098239;28;20180;-84
2024/02/05 05:33:46;;;;;;;0.30;0.20;;;11.10;99.90;;;;;;5106776;28;20208;-84
2024/02/05 05:36:12;;;;;;;4.10;2.95;;;11.20;99.90;;;;;;5105942;28;20176;-81
2024/02/05 05:38:38;;;;;;;0.30;0.20;;;11.30;99.90;;;;;;5093829;28;20204;-84
2024/02/05 05:41:04;;;;;;;3.37;3.17;;;11.30;99.90;;;;;;5104524;28;20184;-85
2024/02/05 05:43:30;;;;;;;0.30;0.20;;;11.20;99.90;;;;;;5104980;28;20187;-84
2024/02/05 05:45:56;;;;;;;0.75;0.75;;;11.20;99.90;;;;;;5105413;28;20748;-82
2024/02/05 05:48:22;;;;;;;0.30;0.20;;;11.10;99.90;;;;;;5105393;28;20222;-84
2024/02/05 05:50:49;;;;;;;0.82;0.80;;;11.20;99.90;;;;;;5104300;28;20195;-82
2024/02/05 05:53:15;;;;;;;0.30;0.20;;;11.20;99.90;;;;;;5106407;28;20187;-82
2024/02/05 05:55:42;;;;;;;1.37;1.27;;;11.20;99.90;;;;;;5102981;28;20507;-85
2024/02/05 05:58:07;;;;;;;5.50;5.22;;;11.20;99.90;;;;;;5100980;28;20509;-85
2024/02/05 06:00:33;;;;;;;1.50;1.50;;;11.10;99.90;;;;;;5099088;28;20337;-86
2024/02/05 06:02:59;;;;;;;3.23;3.13;;;11.00;99.90;;;;;;5104823;28;20195;-82
2024/02/05 06:05:25;;;;;;;3.63;3.42;;;11.00;99.90;;;;;;5105536;28;20211;-85
2024/02/05 06:07:51;;;;;;;0.30;0.20;;;11.00;99.90;;;;;;5106007;28;20471;-82
2024/02/05 06:10:17;;;;;;;0.40;0.40;;;11.00;99.90;;;;;;5103736;28;20227;-82
2024/02/05 06:12:44;;;;;;;0.30;0.20;;;11.00;99.90;;;;;;5103464;28;20440;-81
2024/02/05 06:15:11;;;;;;;0.30;0.20;;;11.10;99.90;;;;;;5120632;27;20580;-85
2024/02/05 06:17:37;;;;;;;0.40;0.30;;;11.20;99.90;;;;;;5114010;27;20216;-84
2024/02/05 06:20:05;;;;;;;0.30;0.20;;;11.10;99.90;;;;;;5109451;27;20192;-85
2024/02/05 06:22:31;;;;;;;1.42;1.33;;;11.00;99.90;;;;;;5101107;27;20211;-82
2024/02/05 06:24:57;;;;;;;3.13;2.93;;;10.90;99.90;;;;;;5101493;28;20242;-82
2024/02/05 06:27:23;;;;;;;1.17;1.07;;;10.80;99.90;;;;;;5101613;27;21247;-82
2024/02/05 06:29:48;;;;;;;0.50;0.50;;;10.80;99.90;;;;;;5099671;28;20610;-80
2024/02/05 06:32:14;;;;;;;1.50;1.50;;;10.70;99.90;;;;;;5097301;28;20268;-77
2024/02/05 06:34:40;;;;;;;0.30;0.20;;;10.80;99.90;;;;;;5100835;28;20200;-77
2024/02/05 06:37:06;;;;;;;0.40;0.30;;;10.70;99.90;;;;;;5101259;28;20194;-76
2024/02/05 06:39:31;;;;;;;0.30;0.20;;;10.70;99.90;;;;;;5098354;28;20518;-80
2024/02/05 06:41:57;;;;;;;0.30;0.30;;;10.60;99.90;;;;;;5096571;28;20266;-77
2024/02/05 06:44:23;;;;;;;1.90;1.90;;;10.70;99.90;;;;;;5104280;28;20298;-77
2024/02/05 06:46:48;;;;;;;0.97;0.97;;;10.70;99.90;;;;;;5104279;28;20179;-77
2024/02/05 06:49:14;;;;;;;4.00;3.80;;;10.70;99.90;;;;;;5103585;28;20583;-76
2024/02/05 06:51:41;;;;;;;0.30;0.20;;;10.70;99.90;;;;;;5104404;28;20240;-77
2024/02/05 06:54:07;;;;;;;1.17;1.17;;;10.70;99.90;;;;;;5099033;28;20206;-77
2024/02/05 06:56:33;;;;;;;1.23;1.15;;;10.70;99.90;;;;;;5099792;28;20183;-77
2024/02/05 06:58:59;;;;;;;0.30;0.20;;;10.60;99.90;;;;;;5096135;28;20691;-76
2024/02/05 07:01:26;;;;;;;0.80;0.80;;;10.60;99.90;;;;;;5095685;28;20192;-77
2024/02/05 07:03:52;;;;;;;1.08;1.08;;;10.60;99.90;;;;;;5096386;28;20475;-77
2024/02/05 07:06:17;;;;;;;0.30;0.20;;;10.60;99.90;;;;;;5078357;28;20253;-77
2024/02/05 07:08:45;;;;;;;6.13;2.10;;;10.60;99.90;;;;;;5078938;28;20663;-77
2024/02/05 07:11:11;;;;;;;0.30;0.20;;;10.60;99.90;;;;;;5099498;28;20701;-76
2024/02/05 07:13:38;;;;;;;0.30;0.20;;;10.50;99.90;;;;;;5101821;28;20374;-77
2024/02/05 07:16:14;;;;;;;0.40;0.30;;;10.50;99.90;;;;;;5101523;28;20670;-77
2024/02/05 07:18:42;;;;;;;1.73;1.63;;;10.50;99.90;;;;;;5093845;28;20250;-77
2024/02/05 07:21:07;;;;;;;0.30;0.30;;;10.50;99.90;;;;;;5101728;28;20654;-77
2024/02/05 07:23:35;;;;;;;3.80;3.53;;;10.50;99.90;;;;;;5101322;28;20187;-76
2024/02/05 07:26:01;;;;;;;0.40;0.40;;;10.60;99.90;;;;;;5115003;28;20253;-76
2024/02/05 07:28:26;;;;;;;0.65;0.65;;;10.60;99.90;;;;;;5102018;28;20728;-76
2024/02/05 07:30:54;;;;;;;8.00;7.43;;;10.60;99.90;;;;;;5084223;28;20184;-77
2024/02/05 07:33:20;;;;;;;0.30;0.20;;;10.50;99.90;;;;;;5098305;28;20308;-77
2024/02/05 07:35:46;;;;;;;0.30;0.20;;;10.60;99.90;;;;;;5104478;28;20180;-77
2024/02/05 07:38:11;;;;;;;0.30;0.20;;;10.70;99.90;;;;;;5101114;28;20223;-77
2024/02/05 07:40:37;;;;;;;0.87;0.73;;;10.70;99.90;;;;;;5100129;28;20617;-76
2024/02/05 07:43:03;;;;;;;1.17;1.17;;;10.80;99.90;;;;;;5113124;28;20940;-76
2024/02/05 07:45:30;;;;;;;0.30;0.20;;;10.80;99.90;;;;;;5092790;28;20286;-76
2024/02/05 07:47:56;;;;;;;0.40;0.40;;;10.80;99.90;;;;;;5116192;28;20842;-77
2024/02/05 07:50:22;;;;;;;0.30;0.20;;;10.80;99.90;;;;;;5098831;28;20210;-77
2024/02/05 07:52:48;;;;;;;0.30;0.20;;;10.80;99.90;;;;;;5102559;28;20681;-77
2024/02/05 07:55:13;;;;;;;0.30;0.30;;;10.80;99.90;;;;;;5101364;28;20584;-77
2024/02/05 07:57:39;;;;;;;0.83;0.83;;;10.80;99.90;;;;;;5118257;27;20287;-76
2024/02/05 08:00:05;;;;;;;2.00;1.17;;;10.90;99.90;;;;;;5103231;27;20267;-77
2024/02/05 08:02:31;;;;;;;0.50;0.30;;;11.00;99.90;;;;;;5090982;28;20201;-77
2024/02/05 08:04:57;;;;;;;1.15;1.15;;;11.00;99.90;;;;;;5104774;28;20219;-76
2024/02/05 08:07:24;;;;;;;5.10;4.80;;;11.00;99.90;;;;;;5106158;27;20206;-77
2024/02/05 08:09:51;;;;;;;0.38;0.35;;;11.00;99.90;;;;;;5101712;28;20486;-77
2024/02/05 08:12:16;;;;;;;0.40;0.20;;;11.10;99.90;;;;;;5084462;28;20344;-77
2024/02/05 08:14:42;;;;;;;0.30;0.20;;;11.10;99.90;;;;;;5084279;28;20184;-77
2024/02/05 08:17:08;;;;;;;0.30;0.20;;;11.20;99.90;;;;;;5102204;28;20940;-77
2024/02/05 08:19:33;;;;;;;0.30;0.20;;;11.30;99.90;;;;;;5103861;28;20791;-76
2024/02/05 08:22:01;;;;;;;0.30;0.20;;;11.40;99.90;;;;;;5106660;27;20172;-77
2024/02/05 08:24:27;;;;;;;1.03;1.03;;;11.40;99.90;;;;;;5100097;28;20239;-77
2024/02/05 08:26:53;;;;;;;1.37;1.30;;;11.50;99.90;;;;;;5093063;28;20436;-77
2024/02/05 08:29:21;;;;;;;0.30;0.20;;;11.50;99.90;;;;;;5102225;28;20617;-77
2024/02/05 08:31:47;;;;;;;0.30;0.20;;;11.60;99.90;;;;;;5102841;28;20731;-77
2024/02/05 08:34:15;;;;;;;0.40;0.30;;;11.70;99.90;;;;;;5101313;28;20570;-77
2024/02/05 08:36:41;;;;;;;0.40;0.30;;;11.70;99.90;;;;;;5092662;28;20429;-77
2024/02/05 08:39:09;;;;;;;0.30;0.20;;;11.70;99.90;;;;;;5102924;28;20783;-77
2024/02/05 08:41:35;;;;;;;0.70;0.70;;;11.80;99.90;;;;;;5092056;28;20399;-76
2024/02/05 08:44:01;;;;;;;1.03;0.93;;;11.90;99.90;;;;;;5096381;28;20484;-77
2024/02/05 08:46:27;;;;;;;0.40;0.37;;;12.00;99.90;;;;;;5095351;28;20264;-77
2024/02/05 08:48:53;;;;;;;0.40;0.20;;;12.10;99.90;;;;;;5096854;28;20463;-76
2024/02/05 08:51:18;;;;;;;0.30;0.20;;;12.20;99.90;;;;;;5097787;28;20375;-77
2024/02/05 08:53:46;;;;;;;0.30;0.30;;;12.40;99.90;;;;;;5101305;28;20200;-77
2024/02/05 08:56:12;;;;;;;1.43;1.33;;;12.50;99.90;;;;;;5102854;28;20196;-77
2024/02/05 08:58:38;;;;;;;0.30;0.20;;;12.60;99.90;;;;;;5118405;27;20487;-77
2024/02/05 09:01:04;;;;;;;2.90;2.70;;;12.80;99.90;;;;;;5088234;28;20860;-77
2024/02/05 09:03:30;;;;;;;0.30;0.20;;;13.00;99.90;;;;;;5096694;28;20214;-77
2024/02/05 09:05:55;;;;;;;0.30;0.30;;;13.30;99.90;;;;;;5097372;28;20827;-77
2024/02/05 09:08:21;;;;;;;0.30;0.20;;;13.60;99.90;;;;;;5097860;28;20960;-77
2024/02/05 09:10:47;;;;;;;0.50;0.50;;;13.90;99.90;;;;;;5108592;27;20297;-77
2024/02/05 09:13:13;;;;;;;0.90;0.90;;;14.40;99.90;;;;;;5101080;27;20214;-77
2024/02/05 09:15:42;;;;;;;0.43;0.40;;;14.80;99.90;;;;;;5096252;28;20724;-77
2024/02/05 09:18:09;;;;;;;0.53;0.53;;;15.50;99.90;;;;;;5096469;28;20479;-77
2024/02/05 09:20:36;;;;;;;0.40;0.37;;;16.30;99.90;;;;;;5101018;28;20445;-77
2024/02/05 09:23:02;;;;;;;0.60;0.50;;;17.00;99.90;;;;;;5100833;28;20692;-77
2024/02/05 09:25:27;;;;;;;0.57;0.57;;;17.50;99.90;;;;;;5094328;28;21015;-77
2024/02/05 09:27:53;;;;;;;4.00;1.03;;;17.80;99.90;;;;;;5093671;28;20222;-77
2024/02/05 09:30:21;;;;;;;1.93;1.80;;;18.00;99.90;;;;;;5100851;28;20196;-77
2024/02/05 09:32:47;;;;;;;1.67;1.57;;;17.90;99.90;;;;;;5100275;28;20206;-77
2024/02/05 09:35:13;;;;;;;1.53;1.43;;;18.00;99.90;;;;;;5094488;28;20430;-77
2024/02/05 09:37:39;;;;;;;1.37;1.33;;;17.90;99.90;;;;;;5097822;28;20592;-77
2024/02/05 09:40:05;;;;;;;0.60;0.60;;;17.90;99.90;;;;;;5095653;28;20811;-77
2024/02/05 09:42:31;;;;;;;0.50;0.50;;;17.80;99.90;;;;;;5098801;28;20218;-77
2024/02/05 09:44:58;;;;;;;0.30;0.20;;;17.70;99.90;;;;;;5097197;28;20468;-77
2024/02/05 09:47:26;;;;;;;0.40;0.40;;;17.50;99.90;;;;;;5095228;28;20554;-77
2024/02/05 09:49:56;;;;;;;0.30;0.20;;;17.30;99.90;;;;;;5098162;28;20515;-77
2024/02/05 09:52:26;;;;;;;1.03;0.97;;;17.20;99.90;;;;;;5084588;28;21104;-77
2024/02/05 09:54:54;;;;;;;0.70;0.53;;;17.10;99.90;;;;;;5107827;27;20451;-77
2024/02/05 09:57:24;;;;;;;0.80;0.80;;;17.00;99.90;;;;;;5077456;28;20421;-77
2024/02/05 09:59:50;;;;;;;0.40;0.30;;;17.00;99.90;;;;;;5094511;28;20718;-77
2024/02/05 10:02:17;;;;;;;0.30;0.30;;;17.10;99.90;;;;;;5095047;28;20476;-77
2024/02/05 10:04:44;;;;;;;1.00;0.97;;;17.40;99.90;;;;;;5111067;27;20209;-77
2024/02/05 10:07:16;;;;;;;1.57;1.47;;;17.80;99.90;;;;;;5092932;28;20749;-77
2024/02/05 10:09:42;;;;;;;0.40;0.20;;;18.20;99.90;;;;;;5093669;28;20983;-77
2024/02/05 10:12:12;;;;;;;14.73;13.60;;;18.50;99.90;;;;;;5089834;28;20459;-77
2024/02/05 10:14:42;;;;;;;0.30;0.20;;;18.60;99.90;;;;;;5094069;28;20916;-77
2024/02/05 10:17:08;;;;;;;0.30;0.20;;;18.60;99.90;;;;;;5094202;28;20652;-77
2024/02/05 10:19:37;;;;;;;0.30;0.20;;;18.60;99.90;;;;;;5100525;28;20419;-77
2024/02/05 10:22:04;;;;;;;0.30;0.20;;;18.40;99.90;;;;;;5113305;27;20442;-77
2024/02/05 10:24:31;;;;;;;0.30;0.30;;;18.20;99.90;;;;;;5096392;28;20864;-77
2024/02/05 10:26:58;;;;;;;0.30;0.20;;;18.00;99.90;;;;;;5096933;28;20790;-77
2024/02/05 10:29:24;;;;;;;0.30;0.20;;;17.80;99.90;;;;;;5098672;28;20550;-77
2024/02/05 10:31:53;;;;;;;0.70;0.70;;;17.60;99.90;;;;;;5099624;28;20419;-77
2024/02/05 10:34:22;;;;;;;0.30;0.20;;;17.50;99.90;;;;;;5098175;28;20441;-77
2024/02/05 10:36:49;;;;;;;0.43;0.40;;;17.40;99.90;;;;;;5118885;27;20465;-77
2024/02/05 10:39:22;;;;;;;0.30;0.20;;;17.40;99.90;;;;;;5097339;28;20825;-77
2024/02/05 10:41:48;;;;;;;0.30;0.20;;;17.30;99.90;;;;;;5098128;28;20441;-76
2024/02/05 10:44:15;;;;;;;0.30;0.20;;;17.30;99.90;;;;;;5091471;28;20678;-76
2024/02/05 10:46:41;;;;;;;0.30;0.20;;;17.40;99.90;;;;;;5095626;28;20516;-77
2024/02/05 10:49:08;;;;;;;0.30;0.20;;;17.40;99.90;;;;;;5097190;28;20938;-76
2024/02/05 10:51:36;;;;;;;0.30;0.20;;;17.50;99.90;;;;;;5095124;28;20498;-77
2024/02/05 10:54:02;;;;;;;0.30;0.20;;;17.60;99.90;;;;;;5089536;28;20464;-77
2024/02/05 10:56:30;;;;;;;0.30;0.20;;;17.60;99.90;;;;;;5089488;28;20437;-76
2024/02/05 10:58:59;;;;;;;0.30;0.20;;;17.50;99.90;;;;;;5094852;28;20648;-79
2024/02/05 11:01:29;;;;;;;0.40;0.40;;;17.50;99.90;;;;;;5100530;27;20436;-77
2024/02/05 11:04:01;;;;;;;0.30;0.20;;;17.50;99.90;;;;;;5095314;28;20520;-76
2024/02/05 11:06:33;;;;;;;0.30;0.20;;;17.40;99.90;;;;;;5092169;28;20450;-76
2024/02/05 11:09:01;;;;;;;0.30;0.20;;;17.40;99.90;;;;;;5098541;28;20455;-79
2024/02/05 11:11:27;;;;;;;0.60;0.60;;;17.30;99.90;;;;;;5103823;28;20471;-78
2024/02/05 11:13:56;;;;;;;0.30;0.20;;;17.30;99.90;;;;;;5093577;28;20583;-77
2024/02/05 11:16:24;;;;;;;0.30;0.20;;;17.50;99.90;;;;;;5091294;28;20448;-77
2024/02/05 11:18:54;;;;;;;0.30;0.20;;;17.60;99.90;;;;;;5090941;28;20466;-77
2024/02/05 11:21:34;;;;;;;0.50;0.50;;;17.70;99.90;;;;;;5093333;28;20909;-77
2024/02/05 11:24:00;;;;;;;0.30;0.20;;;17.80;99.90;;;;;;5089489;28;20458;-77
2024/02/05 11:26:26;;;;;;;0.43;0.40;;;17.90;99.90;;;;;;5100700;28;20458;-77
2024/02/05 11:28:54;;;;;;;0.30;0.20;;;18.00;99.90;;;;;;5101240;28;20837;-77
2024/02/05 11:31:24;;;;;;;0.30;0.20;;;18.10;99.90;;;;;;5095985;28;20678;-77
2024/02/05 11:34:03;;;;;;;0.30;0.20;;;18.20;99.90;;;;;;5099817;28;20545;-77
2024/02/05 11:36:29;;;;;;;0.40;0.40;;;18.20;99.90;;;;;;5098350;28;21045;-77
2024/02/05 11:39:03;;;;;;;0.30;0.30;;;18.20;99.90;;;;;;5106021;27;20809;-77
2024/02/05 11:41:29;;;;;;;0.67;0.67;;;18.20;99.90;;;;;;5096464;28;20443;-77
2024/02/05 11:44:11;;;;;;;0.30;0.20;;;18.20;99.90;;;;;;5097900;28;20457;-77
2024/02/05 11:46:40;;;;;;;0.30;0.20;;;18.20;99.90;;;;;;5098694;28;20202;-77
2024/02/05 11:49:06;;;;;;;0.30;0.20;;;18.20;99.90;;;;;;5103765;28;20778;-77
2024/02/05 11:51:32;;;;;;;0.30;0.20;;;18.20;99.90;;;;;;5112281;27;20457;-77
2024/02/05 11:53:58;;;;;;;0.30;0.20;;;18.20;99.90;;;;;;5096143;28;20461;-77
2024/02/05 11:56:24;;;;;;;0.30;0.20;;;18.10;99.90;;;;;;5095989;28;20445;-77
2024/02/05 11:58:50;;;;;;;0.30;0.20;;;18.10;99.90;;;;;;5099728;28;20451;-77
2024/02/05 12:01:17;;;;;;;0.30;0.20;;;18.00;99.90;;;;;;5090084;28;20434;-77
2024/02/05 12:03:46;;;;;;;0.40;0.30;;;18.00;99.90;;;;;;5095670;28;20209;-77
2024/02/05 12:06:14;;;;;;;0.30;0.20;;;18.00;99.90;;;;;;5090075;28;20744;-77
2024/02/05 12:08:45;;;;;;;0.30;0.30;;;17.90;99.90;;;;;;5092161;28;21001;-77
2024/02/05 12:11:12;;;;;;;0.30;0.30;;;17.90;99.90;;;;;;5085476;28;20839;-77
2024/02/05 12:13:39;;;;;;;0.40;0.40;;;17.90;99.90;;;;;;5094043;28;21056;-77
2024/02/05 12:16:11;;;;;;;0.30;0.20;;;17.80;99.90;;;;;;5093152;28;20548;-77
2024/02/05 12:18:37;;;;;;;0.40;0.40;;;17.80;99.90;;;;;;5097919;28;20450;-77
2024/02/05 12:21:06;;;;;;;0.30;0.20;;;17.80;99.90;;;;;;5097925;28;20931;-77
2024/02/05 12:23:34;;;;;;;0.30;0.20;;;17.80;99.90;;;;;;5102194;28;20501;-77
2024/02/05 12:26:02;;;;;;;0.30;0.20;;;17.70;99.90;;;;;;5102374;28;20499;-77
2024/02/05 12:28:29;;;;;;;0.30;0.20;;;17.70;99.90;;;;;;5110579;27;20710;-77
2024/02/05 12:30:56;;;;;;;0.30;0.20;;;17.60;99.90;;;;;;5095138;28;21010;-77
2024/02/05 12:33:22;;;;;;;0.30;0.20;;;17.70;99.90;;;;;;5101070;28;20454;-78
2024/02/05 12:36:01;;;;;;;0.30;0.20;;;17.70;99.90;;;;;;5095359;28;20422;-77
2024/02/05 12:38:28;;;;;;;0.30;0.20;;;17.70;99.90;;;;;;5104227;28;20206;-77
2024/02/05 12:40:58;;;;;;;0.30;0.20;;;17.80;99.90;;;;;;5101849;28;20658;-78
2024/02/05 12:43:29;;;;;;;0.30;0.20;;;17.80;99.90;;;;;;5094480;28;20535;-77
2024/02/05 12:45:56;;;;;;;0.50;0.47;;;17.90;99.90;;;;;;5100317;28;20470;-78